• Join FlightAware (Why Join?)
  • Login
  • US Flag 
02:36PM EDT


 

Airport Tracker/Info


-or-


 

Live Flight TrackerFlight Track Log ✈ EJA829P ✈ 08-Jul-2013 ✈ KHTO - KMMU

Flight Track Log - Related Links

Times and Time Zones

All times are in EDT time to prevent confusion due to time zone crossing. See the EJA829P flight status page for this flight to view local times or setup timezone preferences in your user account.

Time Position Orientation Groundspeed Altitude Reporting Facility
EDT Latitude Longitude Course Direction KTS MPH feet Rate Location/Type
12:16PM 40.9333 -72.3167 304° West 189 217 2,100  Level New York TRACON
12:17PM 40.9667 -72.3833 304° West 210 242 3,900 900 Climbing New York TRACON
12:18PM 41.0000 -72.4500 304° West 244 281 4,000  Climbing New York TRACON
12:19PM 41.0500 -72.5333 309° West 245 282 4,000  Level New York TRACON
12:20PM 41.1000 -72.6000 315° West 246 283 4,000  Level New York TRACON
12:21PM 41.1333 -72.6667 304° West 245 282 4,000  Level New York TRACON
12:22PM 41.1833 -72.7500 309° West 243 280 4,000 420 Level New York TRACON
12:23PM 41.2167 -72.8167 304° West 255 293 4,900 660 Climbing New York TRACON
12:24PM 41.2500 -72.8833 304° West 253 291 5,300 540 Climbing New York TRACON
12:25PM 41.2667 -72.9667 285° West 247 284 6,000 300 Climbing New York TRACON
12:26PM 41.2667 -73.0667 270° West 244 281 6,000  Level New York TRACON
12:27PM 41.2667 -73.1500 270° West 244 281 6,000  Level New York TRACON
12:28PM 41.2667 -73.2500 270° West 244 281 6,000 -300 Level New York TRACON
12:29PM 41.2667 -73.3333 270° West 246 283 5,400 -1,020 Descending New York TRACON
12:30PM 41.2833 -73.4167 285° West 245 282 4,000 -720 Descending New York TRACON
12:31PM 41.2833 -73.5167 270° West 229 264 4,000  Level New York TRACON
12:32PM 41.2833 -73.6000 270° West 248 285 4,000  Level New York TRACON
12:33PM 41.2667 -73.6833 255° West 254 292 4,000  Level New York TRACON
12:34PM 41.2667 -73.7833 270° West 242 278 4,000  Level New York TRACON
12:35PM 41.2500 -73.8667 255° West 238 274 4,000  Level New York TRACON
12:36PM 41.2500 -73.9500 270° West 236 272 4,000  Level New York TRACON
12:37PM 41.2333 -74.0500 258° West 243 280 4,000  Level New York TRACON
12:38PM 41.2333 -74.1333 270° West 237 273 4,000  Level New York TRACON
12:39PM 41.2167 -74.2167 255° West 248 285 4,000  Level New York TRACON
12:40PM 41.2000 -74.3000 255° West 259 298 4,000 -540 Level New York TRACON
12:41PM 41.1333 -74.3167 191° South 244 281 3,000 -540 Descending New York TRACON
12:42PM 41.0833 -74.3000 166° South 222 255 3,000  Level New York TRACON
12:43PM 41.0167 -74.2667 159° South 225 259 3,000 -540 Level New York TRACON
12:44PM 40.9667 -74.2667 180° South 199 229 2,000 -540 Descending New York TRACON
12:45PM 40.9167 -74.3000 207° Southwest 188 216 2,000 -180 Level New York TRACON
12:46PM 40.8667 -74.3500 217° Southwest 184 212 1,700 -540 Descending New York TRACON
12:47PM 40.8333 -74.3833 217° Southwest 136 157 1,000 -720 Descending New York TRACON
12:49PM 40.7993 -74.4149 163° South  Level Estimated